sensor_id;sensor_type;location;lat;lon;timestamp;P1;durP1;ratioP1;P2;durP2;ratioP2
80854;SDS011;70272;49.222;-122.892;2023-08-06T00:00:40;3.63;;;2.22;;
80854;SDS011;70272;49.222;-122.892;2023-08-06T00:03:06;4.72;;;2.63;;
80854;SDS011;70272;49.222;-122.892;2023-08-06T00:05:32;4.80;;;2.75;;
80854;SDS011;70272;49.222;-122.892;2023-08-06T00:07:59;3.40;;;2.58;;
80854;SDS011;70272;49.222;-122.892;2023-08-06T00:10:25;4.40;;;2.55;;
80854;SDS011;70272;49.222;-122.892;2023-08-06T00:12:51;3.25;;;2.25;;
80854;SDS011;70272;49.222;-122.892;2023-08-06T00:15:18;2.70;;;1.98;;
80854;SDS011;70272;49.222;-122.892;2023-08-06T00:17:44;3.50;;;2.50;;
80854;SDS011;70272;49.222;-122.892;2023-08-06T00:20:11;5.28;;;2.67;;
80854;SDS011;70272;49.222;-122.892;2023-08-06T00:22:37;3.20;;;2.13;;
80854;SDS011;70272;49.222;-122.892;2023-08-06T00:25:04;2.75;;;2.20;;
80854;SDS011;70272;49.222;-122.892;2023-08-06T00:27:31;3.42;;;2.15;;
80854;SDS011;70272;49.222;-122.892;2023-08-06T00:30:00;4.07;;;2.10;;
80854;SDS011;70272;49.222;-122.892;2023-08-06T00:32:26;3.55;;;2.25;;
80854;SDS011;70272;49.222;-122.892;2023-08-06T00:34:52;4.10;;;2.30;;
80854;SDS011;70272;49.222;-122.892;2023-08-06T00:37:19;3.92;;;2.30;;
80854;SDS011;70272;49.222;-122.892;2023-08-06T00:39:45;3.78;;;2.50;;
80854;SDS011;70272;49.222;-122.892;2023-08-06T00:42:11;3.25;;;2.30;;
80854;SDS011;70272;49.222;-122.892;2023-08-06T00:44:38;3.13;;;2.30;;
80854;SDS011;70272;49.222;-122.892;2023-08-06T00:47:05;3.40;;;2.50;;
80854;SDS011;70272;49.222;-122.892;2023-08-06T00:49:32;3.63;;;2.75;;
80854;SDS011;70272;49.222;-122.892;2023-08-06T00:51:59;3.15;;;2.50;;
80854;SDS011;70272;49.222;-122.892;2023-08-06T00:54:26;3.92;;;2.50;;
80854;SDS011;70272;49.222;-122.892;2023-08-06T00:56:53;4.03;;;2.65;;
80854;SDS011;70272;49.222;-122.892;2023-08-06T00:59:19;5.70;;;2.78;;
80854;SDS011;70272;49.222;-122.892;2023-08-06T01:01:46;5.03;;;2.72;;
80854;SDS011;70272;49.222;-122.892;2023-08-06T01:04:12;3.88;;;2.90;;
80854;SDS011;70272;49.222;-122.892;2023-08-06T01:06:44;4.20;;;2.80;;
80854;SDS011;70272;49.222;-122.892;2023-08-06T01:09:31;3.90;;;2.80;;
80854;SDS011;70272;49.222;-122.892;2023-08-06T01:15:15;4.97;;;2.80;;
80854;SDS011;70272;49.222;-122.892;2023-08-06T01:17:57;3.38;;;2.50;;
80854;SDS011;70272;49.222;-122.892;2023-08-06T01:20:27;3.15;;;2.38;;
80854;SDS011;70272;49.222;-122.892;2023-08-06T01:22:54;3.47;;;2.17;;
80854;SDS011;70272;49.222;-122.892;2023-08-06T01:25:20;2.97;;;2.05;;
80854;SDS011;70272;49.222;-122.892;2023-08-06T01:30:16;3.47;;;2.53;;
80854;SDS011;70272;49.222;-122.892;2023-08-06T01:32:44;3.47;;;2.22;;
80854;SDS011;70272;49.222;-122.892;2023-08-06T01:35:12;3.92;;;2.05;;
80854;SDS011;70272;49.222;-122.892;2023-08-06T01:37:40;4.10;;;2.30;;
80854;SDS011;70272;49.222;-122.892;2023-08-06T01:40:10;3.28;;;2.15;;
80854;SDS011;70272;49.222;-122.892;2023-08-06T01:42:37;3.33;;;2.03;;
80854;SDS011;70272;49.222;-122.892;2023-08-06T01:45:05;3.35;;;2.10;;
80854;SDS011;70272;49.222;-122.892;2023-08-06T01:47:35;3.47;;;2.10;;
80854;SDS011;70272;49.222;-122.892;2023-08-06T01:50:02;3.25;;;2.20;;
80854;SDS011;70272;49.222;-122.892;2023-08-06T01:52:28;2.97;;;2.00;;
80854;SDS011;70272;49.222;-122.892;2023-08-06T01:54:55;3.33;;;2.33;;
80854;SDS011;70272;49.222;-122.892;2023-08-06T01:57:21;3.63;;;1.92;;
80854;SDS011;70272;49.222;-122.892;2023-08-06T01:59:47;3.53;;;2.03;;
80854;SDS011;70272;49.222;-122.892;2023-08-06T02:02:14;2.70;;;1.92;;
80854;SDS011;70272;49.222;-122.892;2023-08-06T02:04:40;3.20;;;1.90;;
80854;SDS011;70272;49.222;-122.892;2023-08-06T02:07:06;3.53;;;1.90;;
80854;SDS011;70272;49.222;-122.892;2023-08-06T02:09:32;3.22;;;2.17;;
80854;SDS011;70272;49.222;-122.892;2023-08-06T02:12:00;3.83;;;2.13;;
80854;SDS011;70272;49.222;-122.892;2023-08-06T02:14:27;3.97;;;2.20;;
80854;SDS011;70272;49.222;-122.892;2023-08-06T02:16:54;3.67;;;2.10;;
80854;SDS011;70272;49.222;-122.892;2023-08-06T02:19:20;4.18;;;1.95;;
80854;SDS011;70272;49.222;-122.892;2023-08-06T02:21:46;2.75;;;1.90;;
80854;SDS011;70272;49.222;-122.892;2023-08-06T02:24:12;3.47;;;1.95;;
80854;SDS011;70272;49.222;-122.892;2023-08-06T02:26:38;3.05;;;1.92;;
80854;SDS011;70272;49.222;-122.892;2023-08-06T02:29:05;3.63;;;1.98;;
80854;SDS011;70272;49.222;-122.892;2023-08-06T02:31:31;3.28;;;2.05;;
80854;SDS011;70272;49.222;-122.892;2023-08-06T02:33:57;2.75;;;1.92;;
80854;SDS011;70272;49.222;-122.892;2023-08-06T02:36:24;3.00;;;1.90;;
80854;SDS011;70272;49.222;-122.892;2023-08-06T02:38:52;3.15;;;2.00;;
80854;SDS011;70272;49.222;-122.892;2023-08-06T02:41:18;3.17;;;2.03;;
80854;SDS011;70272;49.222;-122.892;2023-08-06T02:43:45;3.15;;;2.00;;
80854;SDS011;70272;49.222;-122.892;2023-08-06T02:46:11;3.15;;;2.10;;
80854;SDS011;70272;49.222;-122.892;2023-08-06T02:48:37;3.38;;;2.20;;
80854;SDS011;70272;49.222;-122.892;2023-08-06T02:51:04;7.93;;;2.50;;
80854;SDS011;70272;49.222;-122.892;2023-08-06T02:53:30;3.97;;;2.20;;
80854;SDS011;70272;49.222;-122.892;2023-08-06T02:55:56;3.53;;;2.00;;
80854;SDS011;70272;49.222;-122.892;2023-08-06T02:58:24;3.40;;;2.20;;
80854;SDS011;70272;49.222;-122.892;2023-08-06T03:01:00;4.22;;;2.13;;
80854;SDS011;70272;49.222;-122.892;2023-08-06T03:03:28;4.32;;;2.60;;
80854;SDS011;70272;49.222;-122.892;2023-08-06T03:05:57;3.47;;;2.28;;
80854;SDS011;70272;49.222;-122.892;2023-08-06T03:08:24;3.55;;;2.10;;
80854;SDS011;70272;49.222;-122.892;2023-08-06T03:10:50;4.80;;;2.50;;
80854;SDS011;70272;49.222;-122.892;2023-08-06T03:13:17;3.85;;;2.03;;
80854;SDS011;70272;49.222;-122.892;2023-08-06T03:15:51;5.28;;;2.13;;
80854;SDS011;70272;49.222;-122.892;2023-08-06T03:18:21;3.60;;;2.35;;
80854;SDS011;70272;49.222;-122.892;2023-08-06T03:20:47;4.53;;;2.42;;
80854;SDS011;70272;49.222;-122.892;2023-08-06T03:23:14;4.65;;;2.10;;
80854;SDS011;70272;49.222;-122.892;2023-08-06T03:25:40;7.55;;;2.85;;
80854;SDS011;70272;49.222;-122.892;2023-08-06T03:28:06;4.10;;;2.20;;
80854;SDS011;70272;49.222;-122.892;2023-08-06T03:30:33;4.47;;;2.47;;
80854;SDS011;70272;49.222;-122.892;2023-08-06T03:32:59;4.57;;;2.55;;
80854;SDS011;70272;49.222;-122.892;2023-08-06T03:35:25;3.33;;;2.20;;
80854;SDS011;70272;49.222;-122.892;2023-08-06T03:37:51;4.45;;;2.20;;
80854;SDS011;70272;49.222;-122.892;2023-08-06T03:40:18;4.45;;;2.15;;
80854;SDS011;70272;49.222;-122.892;2023-08-06T03:42:44;3.47;;;2.20;;
80854;SDS011;70272;49.222;-122.892;2023-08-06T03:45:10;3.97;;;2.28;;
80854;SDS011;70272;49.222;-122.892;2023-08-06T03:47:36;4.55;;;2.75;;
80854;SDS011;70272;49.222;-122.892;2023-08-06T03:50:02;3.22;;;2.28;;
80854;SDS011;70272;49.222;-122.892;2023-08-06T03:52:29;3.30;;;2.78;;
80854;SDS011;70272;49.222;-122.892;2023-08-06T03:54:55;3.30;;;2.22;;
80854;SDS011;70272;49.222;-122.892;2023-08-06T03:57:21;4.93;;;2.20;;
80854;SDS011;70272;49.222;-122.892;2023-08-06T03:59:48;3.78;;;2.25;;
80854;SDS011;70272;49.222;-122.892;2023-08-06T04:02:14;3.40;;;1.98;;
80854;SDS011;70272;49.222;-122.892;2023-08-06T04:04:40;3.83;;;2.40;;
80854;SDS011;70272;49.222;-122.892;2023-08-06T04:07:06;4.20;;;2.20;;
80854;SDS011;70272;49.222;-122.892;2023-08-06T04:09:33;2.97;;;2.35;;
80854;SDS011;70272;49.222;-122.892;2023-08-06T04:11:59;4.10;;;3.13;;
80854;SDS011;70272;49.222;-122.892;2023-08-06T04:14:27;3.60;;;2.50;;
80854;SDS011;70272;49.222;-122.892;2023-08-06T04:16:53;3.20;;;2.00;;
80854;SDS011;70272;49.222;-122.892;2023-08-06T04:19:19;3.38;;;2.45;;
80854;SDS011;70272;49.222;-122.892;2023-08-06T04:21:46;4.20;;;2.10;;
80854;SDS011;70272;49.222;-122.892;2023-08-06T04:24:12;2.85;;;2.05;;
80854;SDS011;70272;49.222;-122.892;2023-08-06T04:26:38;3.58;;;2.17;;
80854;SDS011;70272;49.222;-122.892;2023-08-06T04:29:04;3.90;;;2.38;;
80854;SDS011;70272;49.222;-122.892;2023-08-06T04:31:30;3.45;;;2.17;;
80854;SDS011;70272;49.222;-122.892;2023-08-06T04:33:57;4.03;;;2.30;;
80854;SDS011;70272;49.222;-122.892;2023-08-06T04:36:23;3.28;;;2.20;;
80854;SDS011;70272;49.222;-122.892;2023-08-06T04:38:49;4.32;;;2.30;;
80854;SDS011;70272;49.222;-122.892;2023-08-06T04:41:16;4.05;;;2.17;;
80854;SDS011;70272;49.222;-122.892;2023-08-06T04:43:43;5.03;;;2.20;;
80854;SDS011;70272;49.222;-122.892;2023-08-06T04:46:09;5.68;;;2.72;;
80854;SDS011;70272;49.222;-122.892;2023-08-06T04:48:35;5.22;;;2.70;;
80854;SDS011;70272;49.222;-122.892;2023-08-06T04:51:02;4.15;;;2.53;;
80854;SDS011;70272;49.222;-122.892;2023-08-06T04:53:28;5.15;;;2.90;;
80854;SDS011;70272;49.222;-122.892;2023-08-06T04:55:54;4.05;;;2.33;;
80854;SDS011;70272;49.222;-122.892;2023-08-06T04:58:20;3.38;;;2.13;;
80854;SDS011;70272;49.222;-122.892;2023-08-06T05:00:46;3.65;;;2.20;;
80854;SDS011;70272;49.222;-122.892;2023-08-06T05:03:13;4.80;;;2.65;;
80854;SDS011;70272;49.222;-122.892;2023-08-06T05:05:42;4.43;;;2.50;;
80854;SDS011;70272;49.222;-122.892;2023-08-06T05:08:13;4.53;;;2.40;;
80854;SDS011;70272;49.222;-122.892;2023-08-06T05:10:44;4.30;;;2.30;;
80854;SDS011;70272;49.222;-122.892;2023-08-06T05:13:10;4.75;;;2.70;;
80854;SDS011;70272;49.222;-122.892;2023-08-06T05:15:37;3.42;;;2.70;;
80854;SDS011;70272;49.222;-122.892;2023-08-06T05:18:05;5.18;;;2.72;;
80854;SDS011;70272;49.222;-122.892;2023-08-06T05:20:31;6.43;;;2.58;;
80854;SDS011;70272;49.222;-122.892;2023-08-06T05:23:02;3.38;;;2.33;;
80854;SDS011;70272;49.222;-122.892;2023-08-06T05:25:29;5.50;;;2.47;;
80854;SDS011;70272;49.222;-122.892;2023-08-06T05:27:56;4.10;;;2.40;;
80854;SDS011;70272;49.222;-122.892;2023-08-06T05:30:22;5.88;;;2.42;;
80854;SDS011;70272;49.222;-122.892;2023-08-06T05:32:48;4.00;;;2.60;;
80854;SDS011;70272;49.222;-122.892;2023-08-06T05:35:15;5.82;;;2.40;;
80854;SDS011;70272;49.222;-122.892;2023-08-06T05:37:41;4.45;;;2.67;;
80854;SDS011;70272;49.222;-122.892;2023-08-06T05:40:07;5.25;;;2.58;;
80854;SDS011;70272;49.222;-122.892;2023-08-06T05:42:34;4.28;;;2.40;;
80854;SDS011;70272;49.222;-122.892;2023-08-06T05:45:00;6.22;;;3.05;;
80854;SDS011;70272;49.222;-122.892;2023-08-06T05:47:26;4.80;;;2.78;;
80854;SDS011;70272;49.222;-122.892;2023-08-06T05:49:52;4.70;;;2.50;;
80854;SDS011;70272;49.222;-122.892;2023-08-06T05:52:19;4.88;;;2.47;;
80854;SDS011;70272;49.222;-122.892;2023-08-06T05:54:45;6.00;;;2.67;;
80854;SDS011;70272;49.222;-122.892;2023-08-06T05:57:11;5.32;;;2.58;;
80854;SDS011;70272;49.222;-122.892;2023-08-06T05:59:37;4.15;;;2.22;;
80854;SDS011;70272;49.222;-122.892;2023-08-06T06:02:04;5.93;;;2.95;;
80854;SDS011;70272;49.222;-122.892;2023-08-06T06:04:30;4.40;;;2.40;;
80854;SDS011;70272;49.222;-122.892;2023-08-06T06:06:56;4.20;;;2.70;;
80854;SDS011;70272;49.222;-122.892;2023-08-06T06:09:22;4.35;;;2.63;;
80854;SDS011;70272;49.222;-122.892;2023-08-06T06:11:49;4.25;;;2.33;;
80854;SDS011;70272;49.222;-122.892;2023-08-06T06:14:18;4.80;;;2.80;;
80854;SDS011;70272;49.222;-122.892;2023-08-06T06:16:45;4.18;;;2.42;;
80854;SDS011;70272;49.222;-122.892;2023-08-06T06:19:12;3.90;;;2.60;;
80854;SDS011;70272;49.222;-122.892;2023-08-06T06:21:38;5.75;;;2.65;;
80854;SDS011;70272;49.222;-122.892;2023-08-06T06:24:05;4.68;;;2.55;;
80854;SDS011;70272;49.222;-122.892;2023-08-06T06:26:32;5.28;;;2.30;;
80854;SDS011;70272;49.222;-122.892;2023-08-06T06:28:59;4.78;;;2.83;;
80854;SDS011;70272;49.222;-122.892;2023-08-06T06:31:25;4.88;;;2.65;;
80854;SDS011;70272;49.222;-122.892;2023-08-06T06:33:51;3.65;;;2.38;;
80854;SDS011;70272;49.222;-122.892;2023-08-06T06:36:19;3.90;;;3.00;;
80854;SDS011;70272;49.222;-122.892;2023-08-06T06:38:46;8.52;;;2.90;;
80854;SDS011;70272;49.222;-122.892;2023-08-06T06:41:14;4.43;;;2.40;;
80854;SDS011;70272;49.222;-122.892;2023-08-06T06:43:40;4.60;;;2.83;;
80854;SDS011;70272;49.222;-122.892;2023-08-06T06:46:07;3.78;;;2.33;;
80854;SDS011;70272;49.222;-122.892;2023-08-06T06:48:33;4.25;;;2.85;;
80854;SDS011;70272;49.222;-122.892;2023-08-06T06:50:59;4.47;;;2.42;;
80854;SDS011;70272;49.222;-122.892;2023-08-06T06:53:26;4.03;;;2.65;;
80854;SDS011;70272;49.222;-122.892;2023-08-06T06:55:55;4.00;;;2.80;;
80854;SDS011;70272;49.222;-122.892;2023-08-06T06:58:21;5.22;;;2.30;;
80854;SDS011;70272;49.222;-122.892;2023-08-06T07:00:48;5.45;;;2.53;;
80854;SDS011;70272;49.222;-122.892;2023-08-06T07:03:15;5.47;;;2.88;;
80854;SDS011;70272;49.222;-122.892;2023-08-06T07:05:41;5.45;;;2.60;;
80854;SDS011;70272;49.222;-122.892;2023-08-06T07:08:10;4.65;;;2.70;;
80854;SDS011;70272;49.222;-122.892;2023-08-06T07:10:36;4.70;;;2.58;;
80854;SDS011;70272;49.222;-122.892;2023-08-06T07:13:03;6.18;;;2.70;;
80854;SDS011;70272;49.222;-122.892;2023-08-06T07:15:29;5.65;;;2.80;;
80854;SDS011;70272;49.222;-122.892;2023-08-06T07:17:55;3.90;;;2.60;;
80854;SDS011;70272;49.222;-122.892;2023-08-06T07:20:22;4.35;;;2.70;;
80854;SDS011;70272;49.222;-122.892;2023-08-06T07:22:48;3.85;;;2.35;;
80854;SDS011;70272;49.222;-122.892;2023-08-06T07:25:15;7.10;;;2.88;;
80854;SDS011;70272;49.222;-122.892;2023-08-06T07:27:42;3.78;;;2.40;;
80854;SDS011;70272;49.222;-122.892;2023-08-06T07:30:08;3.92;;;2.83;;
80854;SDS011;70272;49.222;-122.892;2023-08-06T07:32:34;4.22;;;2.53;;
80854;SDS011;70272;49.222;-122.892;2023-08-06T07:35:01;5.35;;;3.03;;
80854;SDS011;70272;49.222;-122.892;2023-08-06T07:37:28;4.20;;;2.97;;
80854;SDS011;70272;49.222;-122.892;2023-08-06T07:39:54;3.70;;;2.85;;
80854;SDS011;70272;49.222;-122.892;2023-08-06T07:42:21;6.10;;;3.15;;
80854;SDS011;70272;49.222;-122.892;2023-08-06T07:44:54;5.60;;;2.90;;
80854;SDS011;70272;49.222;-122.892;2023-08-06T07:47:22;6.13;;;3.20;;
80854;SDS011;70272;49.222;-122.892;2023-08-06T07:49:49;4.45;;;2.80;;
80854;SDS011;70272;49.222;-122.892;2023-08-06T07:52:15;4.00;;;2.67;;
80854;SDS011;70272;49.222;-122.892;2023-08-06T07:54:41;3.80;;;2.88;;
80854;SDS011;70272;49.222;-122.892;2023-08-06T07:57:07;3.88;;;2.78;;
80854;SDS011;70272;49.222;-122.892;2023-08-06T07:59:34;5.90;;;3.00;;
80854;SDS011;70272;49.222;-122.892;2023-08-06T08:02:00;5.28;;;2.55;;
80854;SDS011;70272;49.222;-122.892;2023-08-06T08:04:26;6.50;;;2.80;;
80854;SDS011;70272;49.222;-122.892;2023-08-06T08:06:53;4.68;;;3.05;;
80854;SDS011;70272;49.222;-122.892;2023-08-06T08:09:19;3.60;;;2.60;;
80854;SDS011;70272;49.222;-122.892;2023-08-06T08:11:45;4.75;;;2.70;;
80854;SDS011;70272;49.222;-122.892;2023-08-06T08:14:12;5.18;;;2.78;;
80854;SDS011;70272;49.222;-122.892;2023-08-06T08:16:38;4.78;;;3.10;;
80854;SDS011;70272;49.222;-122.892;2023-08-06T08:19:04;3.25;;;2.47;;
80854;SDS011;70272;49.222;-122.892;2023-08-06T08:21:31;3.65;;;2.70;;
80854;SDS011;70272;49.222;-122.892;2023-08-06T08:23:59;5.78;;;2.80;;
80854;SDS011;70272;49.222;-122.892;2023-08-06T08:26:26;3.65;;;2.65;;
80854;SDS011;70272;49.222;-122.892;2023-08-06T08:28:53;4.13;;;2.60;;
80854;SDS011;70272;49.222;-122.892;2023-08-06T08:31:19;4.97;;;2.60;;
80854;SDS011;70272;49.222;-122.892;2023-08-06T08:33:46;4.45;;;2.67;;
80854;SDS011;70272;49.222;-122.892;2023-08-06T08:36:12;3.83;;;2.60;;
80854;SDS011;70272;49.222;-122.892;2023-08-06T08:38:38;4.97;;;2.90;;
80854;SDS011;70272;49.222;-122.892;2023-08-06T08:41:05;3.75;;;2.60;;
80854;SDS011;70272;49.222;-122.892;2023-08-06T08:43:31;4.15;;;2.83;;
80854;SDS011;70272;49.222;-122.892;2023-08-06T08:45:57;4.38;;;2.50;;
80854;SDS011;70272;49.222;-122.892;2023-08-06T08:48:26;4.15;;;3.22;;
80854;SDS011;70272;49.222;-122.892;2023-08-06T08:50:53;4.15;;;2.83;;
80854;SDS011;70272;49.222;-122.892;2023-08-06T08:53:19;4.97;;;2.97;;
80854;SDS011;70272;49.222;-122.892;2023-08-06T08:55:48;3.63;;;2.88;;
80854;SDS011;70272;49.222;-122.892;2023-08-06T08:58:15;3.72;;;2.80;;
80854;SDS011;70272;49.222;-122.892;2023-08-06T09:00:41;4.38;;;2.63;;
80854;SDS011;70272;49.222;-122.892;2023-08-06T09:03:08;3.90;;;2.63;;
80854;SDS011;70272;49.222;-122.892;2023-08-06T09:05:34;3.60;;;2.25;;
80854;SDS011;70272;49.222;-122.892;2023-08-06T09:08:04;3.50;;;2.53;;
80854;SDS011;70272;49.222;-122.892;2023-08-06T09:10:30;5.45;;;2.92;;
80854;SDS011;70272;49.222;-122.892;2023-08-06T09:12:57;5.30;;;2.80;;
80854;SDS011;70272;49.222;-122.892;2023-08-06T09:15:24;4.40;;;2.83;;
80854;SDS011;70272;49.222;-122.892;2023-08-06T09:17:54;4.97;;;2.90;;
80854;SDS011;70272;49.222;-122.892;2023-08-06T09:20:21;4.53;;;2.70;;
80854;SDS011;70272;49.222;-122.892;2023-08-06T09:22:47;4.60;;;2.97;;
80854;SDS011;70272;49.222;-122.892;2023-08-06T09:25:21;4.43;;;2.60;;
80854;SDS011;70272;49.222;-122.892;2023-08-06T09:27:53;4.22;;;2.45;;
80854;SDS011;70272;49.222;-122.892;2023-08-06T09:30:32;5.10;;;2.70;;
80854;SDS011;70272;49.222;-122.892;2023-08-06T09:32:59;5.07;;;3.70;;
80854;SDS011;70272;49.222;-122.892;2023-08-06T09:35:29;4.25;;;3.22;;
80854;SDS011;70272;49.222;-122.892;2023-08-06T09:38:14;4.50;;;3.03;;
80854;SDS011;70272;49.222;-122.892;2023-08-06T09:40:40;4.35;;;3.00;;
80854;SDS011;70272;49.222;-122.892;2023-08-06T09:43:07;3.85;;;2.63;;
80854;SDS011;70272;49.222;-122.892;2023-08-06T09:45:34;5.63;;;2.78;;
80854;SDS011;70272;49.222;-122.892;2023-08-06T09:48:05;3.25;;;2.33;;
80854;SDS011;70272;49.222;-122.892;2023-08-06T09:50:36;3.42;;;2.40;;
80854;SDS011;70272;49.222;-122.892;2023-08-06T09:53:07;4.03;;;2.25;;
80854;SDS011;70272;49.222;-122.892;2023-08-06T09:55:34;5.28;;;2.42;;
80854;SDS011;70272;49.222;-122.892;2023-08-06T09:58:01;3.03;;;2.30;;
80854;SDS011;70272;49.222;-122.892;2023-08-06T10:00:27;4.03;;;2.70;;
80854;SDS011;70272;49.222;-122.892;2023-08-06T10:02:54;6.60;;;2.83;;
80854;SDS011;70272;49.222;-122.892;2023-08-06T10:05:25;4.63;;;2.53;;
80854;SDS011;70272;49.222;-122.892;2023-08-06T10:07:52;3.10;;;2.30;;
80854;SDS011;70272;49.222;-122.892;2023-08-06T10:10:18;4.38;;;2.63;;
80854;SDS011;70272;49.222;-122.892;2023-08-06T10:12:54;5.72;;;2.83;;
80854;SDS011;70272;49.222;-122.892;2023-08-06T10:15:24;5.45;;;2.60;;
80854;SDS011;70272;49.222;-122.892;2023-08-06T10:17:51;4.60;;;2.60;;
80854;SDS011;70272;49.222;-122.892;2023-08-06T10:20:22;4.80;;;2.75;;
80854;SDS011;70272;49.222;-122.892;2023-08-06T10:22:59;3.95;;;2.30;;
80854;SDS011;70272;49.222;-122.892;2023-08-06T10:25:30;3.65;;;2.40;;
80854;SDS011;70272;49.222;-122.892;2023-08-06T10:27:57;3.80;;;2.20;;
80854;SDS011;70272;49.222;-122.892;2023-08-06T10:32:55;4.65;;;2.40;;
80854;SDS011;70272;49.222;-122.892;2023-08-06T10:35:42;3.28;;;2.40;;
80854;SDS011;70272;49.222;-122.892;2023-08-06T10:38:15;3.33;;;2.08;;
80854;SDS011;70272;49.222;-122.892;2023-08-06T10:40:49;3.67;;;2.40;;
80854;SDS011;70272;49.222;-122.892;2023-08-06T10:43:34;4.18;;;2.20;;
80854;SDS011;70272;49.222;-122.892;2023-08-06T10:46:20;4.20;;;2.50;;
80854;SDS011;70272;49.222;-122.892;2023-08-06T10:48:52;4.57;;;2.55;;
80854;SDS011;70272;49.222;-122.892;2023-08-06T10:51:18;3.75;;;2.33;;
80854;SDS011;70272;49.222;-122.892;2023-08-06T10:53:45;3.20;;;2.40;;
80854;SDS011;70272;49.222;-122.892;2023-08-06T10:56:13;5.55;;;2.80;;
80854;SDS011;70272;49.222;-122.892;2023-08-06T10:58:41;3.40;;;2.10;;
80854;SDS011;70272;49.222;-122.892;2023-08-06T11:01:08;3.78;;;2.60;;
80854;SDS011;70272;49.222;-122.892;2023-08-06T11:03:34;3.55;;;2.50;;
80854;SDS011;70272;49.222;-122.892;2023-08-06T11:06:01;3.03;;;2.20;;
80854;SDS011;70272;49.222;-122.892;2023-08-06T11:08:28;3.42;;;2.20;;
80854;SDS011;70272;49.222;-122.892;2023-08-06T11:11:07;2.95;;;2.10;;
80854;SDS011;70272;49.222;-122.892;2023-08-06T11:13:43;4.03;;;2.40;;
80854;SDS011;70272;49.222;-122.892;2023-08-06T11:16:22;3.22;;;2.35;;
80854;SDS011;70272;49.222;-122.892;2023-08-06T11:18:52;3.72;;;2.50;;
80854;SDS011;70272;49.222;-122.892;2023-08-06T11:21:19;3.42;;;2.58;;
80854;SDS011;70272;49.222;-122.892;2023-08-06T11:23:46;3.95;;;2.78;;
80854;SDS011;70272;49.222;-122.892;2023-08-06T11:26:13;3.70;;;2.35;;
80854;SDS011;70272;49.222;-122.892;2023-08-06T11:28:48;3.35;;;2.35;;
80854;SDS011;70272;49.222;-122.892;2023-08-06T11:31:22;3.92;;;2.72;;
80854;SDS011;70272;49.222;-122.892;2023-08-06T11:33:52;3.70;;;2.88;;
80854;SDS011;70272;49.222;-122.892;2023-08-06T11:36:28;4.53;;;2.63;;
80854;SDS011;70272;49.222;-122.892;2023-08-06T11:38:58;3.28;;;2.40;;
80854;SDS011;70272;49.222;-122.892;2023-08-06T11:41:27;3.40;;;2.92;;
80854;SDS011;70272;49.222;-122.892;2023-08-06T11:43:54;5.60;;;2.63;;
80854;SDS011;70272;49.222;-122.892;2023-08-06T11:46:21;3.85;;;2.60;;
80854;SDS011;70272;49.222;-122.892;2023-08-06T11:48:58;5.15;;;2.70;;
80854;SDS011;70272;49.222;-122.892;2023-08-06T11:51:27;3.97;;;2.88;;
80854;SDS011;70272;49.222;-122.892;2023-08-06T11:53:56;3.95;;;2.63;;
80854;SDS011;70272;49.222;-122.892;2023-08-06T11:56:24;4.65;;;2.67;;
80854;SDS011;70272;49.222;-122.892;2023-08-06T11:58:51;4.10;;;2.38;;
80854;SDS011;70272;49.222;-122.892;2023-08-06T12:01:18;4.88;;;2.60;;
80854;SDS011;70272;49.222;-122.892;2023-08-06T12:03:44;4.72;;;3.10;;
80854;SDS011;70272;49.222;-122.892;2023-08-06T12:06:10;4.10;;;2.67;;
80854;SDS011;70272;49.222;-122.892;2023-08-06T12:08:37;4.63;;;2.78;;
80854;SDS011;70272;49.222;-122.892;2023-08-06T12:11:03;3.78;;;2.80;;
80854;SDS011;70272;49.222;-122.892;2023-08-06T12:13:30;4.18;;;2.60;;
80854;SDS011;70272;49.222;-122.892;2023-08-06T12:15:56;4.55;;;2.85;;
80854;SDS011;70272;49.222;-122.892;2023-08-06T12:18:22;5.90;;;2.80;;
80854;SDS011;70272;49.222;-122.892;2023-08-06T12:20:49;4.03;;;2.72;;
80854;SDS011;70272;49.222;-122.892;2023-08-06T12:23:16;4.65;;;2.95;;
80854;SDS011;70272;49.222;-122.892;2023-08-06T12:25:42;3.85;;;2.80;;
80854;SDS011;70272;49.222;-122.892;2023-08-06T12:28:10;4.72;;;3.00;;
80854;SDS011;70272;49.222;-122.892;2023-08-06T12:30:37;4.18;;;2.50;;
80854;SDS011;70272;49.222;-122.892;2023-08-06T12:33:07;4.35;;;2.90;;
80854;SDS011;70272;49.222;-122.892;2023-08-06T12:35:33;4.43;;;2.72;;
80854;SDS011;70272;49.222;-122.892;2023-08-06T12:37:59;5.82;;;2.80;;
80854;SDS011;70272;49.222;-122.892;2023-08-06T12:40:26;5.72;;;2.80;;
80854;SDS011;70272;49.222;-122.892;2023-08-06T12:42:52;4.35;;;3.00;;
80854;SDS011;70272;49.222;-122.892;2023-08-06T12:45:19;3.47;;;2.50;;
80854;SDS011;70272;49.222;-122.892;2023-08-06T12:47:46;3.58;;;2.55;;
80854;SDS011;70272;49.222;-122.892;2023-08-06T12:50:13;4.40;;;2.65;;
80854;SDS011;70272;49.222;-122.892;2023-08-06T12:52:40;4.30;;;2.72;;
80854;SDS011;70272;49.222;-122.892;2023-08-06T12:55:06;3.08;;;2.40;;
80854;SDS011;70272;49.222;-122.892;2023-08-06T12:57:33;4.07;;;2.20;;
80854;SDS011;70272;49.222;-122.892;2023-08-06T13:00:00;3.40;;;2.47;;
80854;SDS011;70272;49.222;-122.892;2023-08-06T13:02:26;4.65;;;2.33;;
80854;SDS011;70272;49.222;-122.892;2023-08-06T13:04:55;3.20;;;2.00;;
80854;SDS011;70272;49.222;-122.892;2023-08-06T13:07:21;3.72;;;2.10;;
80854;SDS011;70272;49.222;-122.892;2023-08-06T13:09:47;4.57;;;2.50;;
80854;SDS011;70272;49.222;-122.892;2023-08-06T13:12:13;3.50;;;2.20;;
80854;SDS011;70272;49.222;-122.892;2023-08-06T13:14:40;5.30;;;2.60;;
80854;SDS011;70272;49.222;-122.892;2023-08-06T13:17:06;3.13;;;2.03;;
80854;SDS011;70272;49.222;-122.892;2023-08-06T13:19:33;4.78;;;2.30;;
80854;SDS011;70272;49.222;-122.892;2023-08-06T13:22:01;3.28;;;2.30;;
80854;SDS011;70272;49.222;-122.892;2023-08-06T13:24:32;3.72;;;2.20;;
80854;SDS011;70272;49.222;-122.892;2023-08-06T13:26:58;3.60;;;2.30;;
80854;SDS011;70272;49.222;-122.892;2023-08-06T13:29:25;3.78;;;2.40;;
80854;SDS011;70272;49.222;-122.892;2023-08-06T13:31:52;4.32;;;2.33;;
80854;SDS011;70272;49.222;-122.892;2023-08-06T13:34:19;3.40;;;2.33;;
80854;SDS011;70272;49.222;-122.892;2023-08-06T13:36:45;5.20;;;2.33;;
80854;SDS011;70272;49.222;-122.892;2023-08-06T13:39:11;4.90;;;2.33;;
80854;SDS011;70272;49.222;-122.892;2023-08-06T13:41:38;4.13;;;2.50;;
80854;SDS011;70272;49.222;-122.892;2023-08-06T13:44:07;5.03;;;2.60;;
80854;SDS011;70272;49.222;-122.892;2023-08-06T13:46:33;5.32;;;2.80;;
80854;SDS011;70272;49.222;-122.892;2023-08-06T13:48:59;6.07;;;2.70;;
80854;SDS011;70272;49.222;-122.892;2023-08-06T13:51:25;5.13;;;3.10;;
80854;SDS011;70272;49.222;-122.892;2023-08-06T13:53:52;5.03;;;2.88;;
80854;SDS011;70272;49.222;-122.892;2023-08-06T13:56:19;6.05;;;3.30;;
80854;SDS011;70272;49.222;-122.892;2023-08-06T13:58:45;5.72;;;2.85;;
80854;SDS011;70272;49.222;-122.892;2023-08-06T14:01:12;6.07;;;3.65;;
80854;SDS011;70272;49.222;-122.892;2023-08-06T14:03:38;8.80;;;4.18;;
80854;SDS011;70272;49.222;-122.892;2023-08-06T14:06:05;7.15;;;3.75;;
80854;SDS011;70272;49.222;-122.892;2023-08-06T14:08:31;7.32;;;3.88;;
80854;SDS011;70272;49.222;-122.892;2023-08-06T14:10:57;9.15;;;4.22;;
80854;SDS011;70272;49.222;-122.892;2023-08-06T14:13:23;7.05;;;4.13;;
80854;SDS011;70272;49.222;-122.892;2023-08-06T14:15:50;8.38;;;3.60;;
80854;SDS011;70272;49.222;-122.892;2023-08-06T14:18:16;3.55;;;2.30;;